Silver Lake, Minnesota
Current Conditions -  °F | °C
As of 6:52 AM on Sunday 21 Dec 2014 (Local Time) from KHCD Reporting Station
Haze Haze  
Wind Chill: 27°   Ceiling: 200
Heat Index: 33°   Visibility: 0.75mi
Dew Point: 33°   Wind: 6mph
Humidity: 100%   Direction: 150°SSE
Pressure: 29.87"   Gusts: NA
Location:  44.9°N, 94.2°W
Report Text: KHCD 211252Z AUTO 15005KT 3/4SM BR OVC002 01/01 A2987 RMK AO2 T00050005
Loading
Personal Weather Stations






























Interactive Weather Map New forecast layout! Learn more

10-Day Weather Forecast

Advertisements
Track Severe Weather on mobile